• Join FlightAware (Why Join?)
  • Login
  • US Flag 
03:40PM EDT


 

Airport Tracker/Info


-or-


 

Live Flight TrackerFlight Track Log ✈ OPT452 ✈ 20-Apr-2013 ✈ KJZI - KSUA

Flight Track Log - Related Links

Times and Time Zones

All times are in EDT time to prevent confusion due to time zone crossing. See the OPT452 flight status page for this flight to view local times or setup timezone preferences in your user account.

Time Position Orientation Groundspeed Altitude Reporting Facility
EDT Latitude Longitude Course Direction KTS MPH feet Rate Location/Type
09:10AM 32.7042 -80.0364 265° West 170 196 1,600  Level Jacksonville Center
09:11AM 32.6994 -80.0981 265° West 191 220 4,800 3,360 Climbing Jacksonville Center
09:12AM 32.7006 -80.1550 271° West 191 220 8,400 3,420 Climbing Jacksonville Center
09:13AM 32.7019 -80.2167 272° West 191 220 11,700 2,400 Climbing Jacksonville Center
09:14AM 32.6714 -80.2494 222° Southwest 175 201 13,200 1,680 Climbing Jacksonville Center
09:15AM 32.6117 -80.2931 212° Southwest 195 224 15,100 2,100 Climbing Jacksonville Center
09:16AM 32.5478 -80.3394 211° Southwest 243 280 17,400 2,100 Climbing Jacksonville Center
09:17AM 32.4800 -80.3856 210° Southwest 273 314 19,400 1,980 Climbing Jacksonville Center
09:18AM 32.4119 -80.4317 210° Southwest 285 328 21,400 1,800 Climbing Jacksonville Center
09:19AM 32.3397 -80.4806 210° Southwest 291 335 23,000 780 Climbing Jacksonville Center
09:20AM 32.2617 -80.5367 211° Southwest 303 349 23,000  Level Jacksonville Center
09:21AM 32.1769 -80.5953 210° Southwest 335 386 23,000 480 Level Jacksonville Center
09:22AM 32.0967 -80.6511 211° Southwest 345 397 24,000 480 Climbing Jacksonville Center
09:23AM 32.0058 -80.7147 211° Southwest 352 405 24,000  Level Jacksonville Center
09:24AM 31.9192 -80.7731 210° Southwest 358 412 24,000  Level Jacksonville Center
09:25AM 31.8450 -80.8261 211° Southwest 353 406 24,000  Level Jacksonville Center
09:26AM 31.7561 -80.8842 209° Southwest 348 400 24,000  Level Jacksonville Center
09:27AM 31.6794 -80.9322 208° Southwest 320 368 24,000  Level Jacksonville Center
09:28AM 31.6003 -80.9289 178° South 309 356 24,000  Level Jacksonville Center
09:29AM 31.5033 -80.8847 159° South 329 379 24,000  Level Jacksonville Center
09:30AM 31.4272 -80.8231 145° Southeast 354 407 24,000 600 Level Jacksonville Center
09:31AM 31.3300 -80.7497 147° Southeast 376 433 25,300 1,500 Climbing Jacksonville Center
09:32AM 31.2433 -80.6861 148° Southeast 376 433 27,000 1,140 Climbing Jacksonville Center
09:33AM 31.1461 -80.6278 153° Southeast 371 427 27,600 1,140 Climbing Jacksonville Center
09:34AM 31.0472 -80.5792 157° South 380 437 29,300 1,500 Climbing Jacksonville Center
09:35AM 30.9544 -80.5331 157° South 387 445 30,600 1,200 Climbing Jacksonville Center
09:36AM 30.8514 -80.4922 161° South 380 437 31,800 1,140 Climbing Jacksonville Center
09:37AM 30.7489 -80.4825 175° South 374 430 32,900 1,080 Climbing Jacksonville Center
09:38AM 30.6464 -80.4708 174° South 374 430 34,000 540 Climbing Jacksonville Center
09:39AM 30.5378 -80.4592 175° South 382 440 34,000  Level Jacksonville Center
09:40AM 30.4247 -80.4475 175° South 401 461 34,000  Level Jacksonville Center
09:41AM 30.3117 -80.4383 176° South 411 473 34,000  Level Jacksonville Center
09:42AM 30.2050 -80.4242 173° South 405 466 34,000  Level Jacksonville Center
09:43AM 30.0964 -80.4150 176° South 400 460 34,000  Level Jacksonville Center
09:44AM 29.9897 -80.4033 175° South 400 460 34,000  Level Jacksonville Center
09:45AM 29.8808 -80.3942 176° South 395 455 34,000  Level Jacksonville Center
09:46AM 29.7764 -80.3850 176° South 390 449 34,000 -300 Level Jacksonville Center
09:47AM 29.6675 -80.3733 175° South 390 449 33,500 -720 Descending Jacksonville Center
09:48AM 29.5589 -80.3642 176° South 390 449 32,600 -780 Descending Jacksonville Center
09:49AM 29.4731 -80.3544 174° South 390 449 32,000 -720 Descending Jacksonville Center
09:50AM 29.3517 -80.3386 174° South 390 449 31,200 -900 Descending Jacksonville Center
09:51AM 29.2431 -80.3294 176° South 396 456 30,300 -960 Descending Jacksonville Center
09:51AM 29.1706 -80.3239 176° South 410 472 29,800 -900 Descending Miami Center
09:52AM 29.0542 -80.3131 175° South 423 487 29,000 -1,620 Descending Miami Center
09:53AM 28.9397 -80.3000 174° South 423 487 26,600 -2,580 Descending Miami Center
09:54AM 28.8231 -80.2894 175° South 428 493 23,900 -2,640 Descending Miami Center
09:55AM 28.7169 -80.2767 174° South 428 493 21,400 -2,460 Descending Miami Center
09:56AM 28.6086 -80.2686 176° South 416 479 19,000 -2,580 Descending Miami Center
09:57AM 28.4858 -80.2531 174° South 405 466 16,300 -2,640 Descending Miami Center
09:58AM 28.3839 -80.2428 175° South 394 453 13,800 -2,580 Descending Miami Center
09:59AM 28.2881 -80.2328 175° South 363 418 11,200 -1,800 Descending Miami Center
10:00AM 28.1922 -80.2253 176° South 353 406 10,200 -900 Descending Miami Center
10:01AM 28.1092 -80.2158 174° South 335 386 9,500 -1,140 Descending Miami Center
10:02AM 28.0383 -80.2089 175° South 292 336 8,000 -1,620 Descending Miami Center
10:03AM 27.9633 -80.2019 175° South 270 311 6,300 -1,080 Descending Miami Center
10:04AM 27.8925 -80.1953 175° South 264 304 5,900 -180 Descending Miami Center
10:05AM 27.8319 -80.1889 175° South 250 288 6,000  Climbing Miami Center
10:06AM 27.7569 -80.1819 175° South 259 298 6,000  Level Miami Center
10:07AM 27.6717 -80.1747 176° South 274 315 6,000 -60 Level Miami Center
10:08AM 27.5967 -80.1656 174° South 274 315 5,900 -600 Descending Miami Center
10:09AM 27.5258 -80.1589 175° South 265 305 4,800 -960 Descending Miami Center
10:10AM 27.4694 -80.1547 176° South 243 280 4,000 -420 Descending Miami Center
10:11AM 27.4114 -80.1486 175° South 225 259 4,000 -240 Level Miami Center
10:12AM 27.3447 -80.1419 175° South 219 252 3,600 -900 Descending Miami Center
10:13AM 27.2883 -80.1428 181° South 214 246 2,300 -1,080 Descending Miami Center
10:14AM 27.2400 -80.1553 193° South 214 246 1,500 -600 Descending Miami Center
10:15AM 27.1917 -80.1678 193° South 192 221 1,200 -360 Descending Miami Center
10:16AM 27.1703 -80.1883 221° Southwest 135 155 800 1,380 Descending Miami Center
10:17AM 27.1178 -80.2008 192° South 135 155 4,000 1,560 Climbing Miami Center
10:18AM 27.0819 -80.2183 204° Southwest 135 155 4,000  Level Miami Center
10:20AM 27.1817 -80.2213 358° North  Level Estimated